Time;durP1;ratioP1;P1;durP2;ratioP2;P2;SDS_P1;SDS_P2;PMS_P1;PMS_P2;Temp;Humidity;BMP_temperature;BMP_pressure;BME280_temperature;BME280_humidity;BME280_pressure;Samples;Min_cycle;Max_cycle;Signal;HPM_P1;HPM_P2
2022/11/09 00:01:00;;;;;;;11.70;9.90;;;12.00;99.90;;;;;;5074297;28;20628;-65
2022/11/09 00:03:28;;;;;;;15.80;11.53;;;12.00;99.90;;;;;;5073776;28;20625;-65
2022/11/09 00:05:56;;;;;;;16.90;12.00;;;12.10;99.90;;;;;;5073725;28;20587;-66
2022/11/09 00:08:24;;;;;;;14.43;10.43;;;12.10;99.90;;;;;;5074305;28;20626;-65
2022/11/09 00:10:53;;;;;;;11.97;10.00;;;12.10;99.90;;;;;;5074180;28;20642;-65
2022/11/09 00:13:21;;;;;;;11.23;9.10;;;12.10;99.90;;;;;;5074091;28;20600;-65
2022/11/09 00:15:51;;;;;;;11.53;10.07;;;12.00;99.90;;;;;;5073144;28;20975;-65
2022/11/09 00:18:18;;;;;;;12.07;10.47;;;12.10;99.90;;;;;;5073766;28;20610;-65
2022/11/09 00:20:46;;;;;;;16.70;10.70;;;12.00;99.90;;;;;;5072465;28;20632;-65
2022/11/09 00:23:14;;;;;;;11.03;9.23;;;12.10;99.90;;;;;;5073983;28;20733;-65
2022/11/09 00:25:42;;;;;;;12.67;10.10;;;12.00;99.90;;;;;;5073921;28;21167;-66
2022/11/09 00:28:10;;;;;;;15.20;10.73;;;12.00;99.90;;;;;;5073521;28;20653;-64
2022/11/09 00:30:38;;;;;;;11.40;9.27;;;12.10;99.90;;;;;;5074166;28;20614;-64
2022/11/09 00:33:09;;;;;;;14.50;9.10;;;12.10;99.90;;;;;;5073674;28;20602;-64
2022/11/09 00:35:38;;;;;;;12.40;9.50;;;12.10;99.90;;;;;;5074117;28;20595;-65
2022/11/09 00:38:06;;;;;;;9.77;8.10;;;12.10;99.90;;;;;;5073564;28;20614;-64
2022/11/09 00:40:33;;;;;;;11.03;8.53;;;12.20;99.90;;;;;;5073847;28;20606;-63
2022/11/09 00:43:01;;;;;;;14.30;8.60;;;12.20;99.90;;;;;;5071884;28;20622;-63
2022/11/09 00:45:29;;;;;;;9.33;8.43;;;12.30;99.90;;;;;;5073012;28;20636;-64
2022/11/09 00:47:58;;;;;;;10.23;9.23;;;12.30;99.90;;;;;;5071844;28;20622;-64
2022/11/09 00:50:28;;;;;;;11.17;10.07;;;12.30;99.90;;;;;;5066981;28;20619;-64
2022/11/09 00:52:55;;;;;;;15.57;10.77;;;12.20;99.90;;;;;;5053059;28;20596;-64
2022/11/09 00:55:23;;;;;;;13.53;12.10;;;12.20;99.90;;;;;;5053040;28;21165;-64
2022/11/09 00:57:52;;;;;;;12.97;11.67;;;12.20;99.90;;;;;;5052837;28;20965;-63
2022/11/09 01:00:23;;;;;;;13.60;12.10;;;12.10;99.90;;;;;;5052331;28;20627;-65
2022/11/09 01:02:51;;;;;;;14.00;12.43;;;12.10;99.90;;;;;;5059692;28;21004;-64
2022/11/09 01:05:19;;;;;;;16.00;11.33;;;12.00;99.90;;;;;;5070823;28;20658;-65
2022/11/09 01:07:51;;;;;;;16.30;11.80;;;12.00;99.90;;;;;;5058523;28;21023;-66
2022/11/09 01:10:19;;;;;;;13.83;11.77;;;12.00;99.90;;;;;;5053581;28;20693;-65
2022/11/09 01:12:47;;;;;;;13.77;12.37;;;12.00;99.90;;;;;;5052849;28;20614;-65
2022/11/09 01:15:16;;;;;;;13.90;11.77;;;12.00;99.90;;;;;;5053304;28;20619;-65
2022/11/09 01:17:44;;;;;;;16.47;12.10;;;12.00;99.90;;;;;;5053159;28;20638;-66
2022/11/09 01:20:12;;;;;;;16.13;11.87;;;12.10;99.90;;;;;;5067213;28;20600;-64
2022/11/09 01:22:40;;;;;;;13.20;11.80;;;12.00;99.90;;;;;;5072705;28;21001;-66
2022/11/09 01:25:09;;;;;;;15.00;11.73;;;12.10;99.90;;;;;;5072882;28;20661;-65
2022/11/09 01:27:37;;;;;;;32.73;18.30;;;12.10;99.90;;;;;;5071787;28;21433;-65
2022/11/09 01:30:08;;;;;;;17.80;12.37;;;12.10;99.90;;;;;;5072611;28;21151;-65
2022/11/09 01:32:35;;;;;;;15.63;13.33;;;12.00;99.90;;;;;;5072275;28;20614;-65
2022/11/09 01:35:06;;;;;;;13.20;11.60;;;12.00;99.90;;;;;;5072916;28;20697;-65
2022/11/09 01:37:34;;;;;;;14.77;12.33;;;12.00;99.90;;;;;;5071976;28;21038;-66
2022/11/09 01:40:02;;;;;;;13.20;11.47;;;12.00;99.90;;;;;;5071523;28;21182;-66
2022/11/09 01:42:38;;;;;;;13.70;11.87;;;12.00;99.90;;;;;;5070622;28;20622;-65
2022/11/09 01:45:27;;;;;;;14.33;12.80;;;12.00;99.90;;;;;;5072455;28;20634;-65
2022/11/09 01:48:01;;;;;;;16.53;13.40;;;12.00;99.90;;;;;;5067309;28;21285;-66
2022/11/09 01:50:41;;;;;;;24.83;14.70;;;11.90;99.90;;;;;;5065566;28;20976;-65
2022/11/09 01:53:14;;;;;;;24.40;13.87;;;11.90;99.90;;;;;;5051173;28;20583;-65
2022/11/09 01:55:43;;;;;;;16.13;12.33;;;12.00;99.90;;;;;;5058115;28;20614;-66
2022/11/09 01:58:17;;;;;;;14.60;12.77;;;12.00;99.90;;;;;;5071714;28;20959;-66
2022/11/09 02:00:49;;;;;;;13.30;12.00;;;12.00;99.90;;;;;;5072077;28;20561;-65
2022/11/09 02:03:22;;;;;;;15.07;11.80;;;12.00;99.90;;;;;;5066133;28;20612;-65
2022/11/09 02:05:50;;;;;;;13.57;12.13;;;12.00;99.90;;;;;;5068245;28;20641;-66
2022/11/09 02:08:22;;;;;;;14.23;12.50;;;12.00;99.90;;;;;;5067978;28;20605;-65
2022/11/09 02:11:00;;;;;;;15.57;13.93;;;12.00;99.90;;;;;;5061301;28;20661;-65
2022/11/09 02:13:31;;;;;;;11.63;10.47;;;12.00;99.90;;;;;;5070585;28;20953;-65
2022/11/09 02:16:05;;;;;;;13.13;11.73;;;12.00;99.90;;;;;;5049802;28;21014;-65
2022/11/09 02:18:33;;;;;;;15.57;11.50;;;12.00;99.90;;;;;;5051716;28;20619;-64
2022/11/09 02:21:04;;;;;;;15.07;11.57;;;12.00;99.90;;;;;;5049619;28;20615;-64
2022/11/09 02:23:32;;;;;;;13.30;11.90;;;12.00;99.90;;;;;;5051667;28;20969;-64
2022/11/09 02:26:05;;;;;;;13.63;12.23;;;12.00;99.90;;;;;;5052123;28;20674;-64
2022/11/09 02:28:35;;;;;;;14.57;13.00;;;12.00;99.90;;;;;;5069976;28;20660;-64
2022/11/09 02:31:07;;;;;;;13.50;12.10;;;12.00;99.90;;;;;;5071002;28;20614;-66
2022/11/09 02:33:43;;;;;;;16.70;12.57;;;12.00;99.90;;;;;;5072104;28;20568;-66
2022/11/09 02:36:13;;;;;;;16.77;13.70;;;11.90;99.90;;;;;;5070585;28;20586;-65
2022/11/09 02:38:41;;;;;;;15.38;13.20;;;11.90;99.90;;;;;;5070895;28;20610;-65
2022/11/09 02:41:12;;;;;;;17.70;13.23;;;11.90;99.90;;;;;;5053336;28;20207;-65
2022/11/09 02:43:41;;;;;;;17.40;14.50;;;11.90;99.90;;;;;;5071584;28;20595;-64
2022/11/09 02:46:09;;;;;;;19.87;15.30;;;11.90;99.90;;;;;;5071459;28;21203;-65
2022/11/09 02:48:37;;;;;;;17.73;13.77;;;11.90;99.90;;;;;;5070002;28;21190;-65
2022/11/09 02:51:05;;;;;;;18.33;13.40;;;11.90;99.90;;;;;;5059952;28;20627;-65
2022/11/09 02:53:35;;;;;;;19.10;13.43;;;11.90;99.90;;;;;;5051666;28;20212;-64
2022/11/09 02:56:03;;;;;;;21.80;14.27;;;11.90;99.90;;;;;;5050174;28;20925;-65
2022/11/09 02:58:30;;;;;;;18.20;14.90;;;11.80;99.90;;;;;;5050673;28;20680;-65
2022/11/09 03:00:58;;;;;;;17.97;16.10;;;11.80;99.90;;;;;;5049785;28;20815;-65
2022/11/09 03:03:26;;;;;;;19.75;14.93;;;11.70;99.90;;;;;;5058961;28;20626;-65
2022/11/09 03:05:54;;;;;;;18.90;15.20;;;11.70;99.90;;;;;;5069707;28;20219;-65
2022/11/09 03:08:22;;;;;;;15.87;13.80;;;11.70;99.90;;;;;;5070296;28;20610;-65
2022/11/09 03:10:53;;;;;;;18.80;13.57;;;11.70;99.90;;;;;;5069957;28;20650;-64
2022/11/09 03:13:21;;;;;;;16.20;14.50;;;11.70;99.90;;;;;;5069983;28;20626;-64
2022/11/09 03:15:49;;;;;;;18.20;14.20;;;11.70;99.90;;;;;;5071691;28;20211;-65
2022/11/09 03:18:17;;;;;;;17.73;14.10;;;11.70;99.90;;;;;;5071540;28;20614;-65
2022/11/09 03:20:45;;;;;;;17.10;13.90;;;11.70;99.90;;;;;;5045886;28;20633;-64
2022/11/09 03:23:17;;;;;;;20.17;14.40;;;11.70;99.90;;;;;;5051274;28;21030;-65
2022/11/09 03:25:44;;;;;;;23.47;15.50;;;11.70;99.90;;;;;;5059197;28;20717;-64
2022/11/09 03:28:14;;;;;;;18.33;15.10;;;11.60;99.90;;;;;;5071082;28;20665;-64
2022/11/09 03:30:42;;;;;;;18.33;14.55;;;11.60;99.90;;;;;;5073563;28;20553;-64
2022/11/09 03:33:11;;;;;;;17.83;14.75;;;11.60;99.90;;;;;;5072758;28;20208;-64
2022/11/09 03:35:40;;;;;;;26.88;16.40;;;11.60;99.90;;;;;;5074157;28;20254;-65
2022/11/09 03:38:08;;;;;;;23.40;15.20;;;11.60;99.90;;;;;;5073225;28;20819;-65
2022/11/09 03:40:36;;;;;;;19.73;15.88;;;11.60;99.90;;;;;;5067473;28;20201;-64
2022/11/09 03:43:04;;;;;;;23.13;16.10;;;11.50;99.90;;;;;;5053587;28;20208;-64
2022/11/09 03:45:34;;;;;;;16.63;14.60;;;11.60;99.90;;;;;;5053535;28;20220;-64
2022/11/09 03:48:02;;;;;;;18.63;15.60;;;11.50;99.90;;;;;;5056419;28;20189;-64
2022/11/09 03:50:32;;;;;;;17.70;15.80;;;11.50;99.90;;;;;;5067636;28;20736;-64
2022/11/09 03:53:01;;;;;;;15.68;14.07;;;11.50;99.90;;;;;;5066687;28;20201;-64
2022/11/09 03:55:29;;;;;;;19.60;14.93;;;11.60;99.90;;;;;;5054462;28;20193;-65
2022/11/09 03:57:57;;;;;;;18.98;14.05;;;11.60;99.90;;;;;;5058371;28;20625;-64
2022/11/09 04:00:26;;;;;;;18.70;14.27;;;11.60;99.90;;;;;;5070811;28;20208;-65
2022/11/09 04:02:55;;;;;;;17.30;14.90;;;11.60;99.90;;;;;;5053179;28;20655;-64
2022/11/09 04:05:23;;;;;;;17.42;14.48;;;11.60;99.90;;;;;;5058261;28;20669;-64
2022/11/09 04:07:53;;;;;;;18.55;14.68;;;11.60;99.90;;;;;;5073617;28;20208;-65
2022/11/09 04:10:22;;;;;;;17.60;15.68;;;11.60;99.90;;;;;;5073661;28;20200;-64
2022/11/09 04:12:50;;;;;;;22.63;18.47;;;11.60;99.90;;;;;;5067542;28;20677;-64
2022/11/09 04:15:18;;;;;;;21.80;17.48;;;11.60;99.90;;;;;;5072592;28;20630;-65
2022/11/09 04:17:55;;;;;;;16.77;14.80;;;11.60;99.90;;;;;;5069425;28;20200;-65
2022/11/09 04:20:24;;;;;;;16.95;14.40;;;11.60;99.90;;;;;;5066804;28;20207;-65
2022/11/09 04:22:56;;;;;;;15.68;13.52;;;11.60;99.90;;;;;;5053650;28;20197;-66
2022/11/09 04:25:25;;;;;;;17.27;14.48;;;11.60;99.90;;;;;;5053284;28;20232;-65
2022/11/09 04:27:56;;;;;;;17.13;14.43;;;11.60;99.90;;;;;;5055593;28;20689;-65
2022/11/09 04:30:26;;;;;;;16.92;14.55;;;11.60;99.90;;;;;;5071541;28;20192;-65
2022/11/09 04:32:56;;;;;;;15.57;13.68;;;11.60;99.90;;;;;;5073650;28;20203;-65
2022/11/09 04:35:25;;;;;;;15.35;13.80;;;11.60;99.90;;;;;;5073017;28;20192;-65
2022/11/09 04:37:54;;;;;;;14.60;13.15;;;11.60;99.90;;;;;;5073135;28;20196;-65
2022/11/09 04:40:22;;;;;;;31.02;26.42;;;11.60;99.90;;;;;;5060012;28;20238;-65
2022/11/09 04:42:50;;;;;;;20.83;16.63;;;11.70;99.90;;;;;;5072926;28;20196;-66
2022/11/09 04:45:19;;;;;;;15.82;14.00;;;11.70;99.90;;;;;;5063145;28;20216;-66
2022/11/09 04:47:47;;;;;;;19.30;13.55;;;11.70;99.90;;;;;;5053298;28;20665;-65
2022/11/09 04:50:16;;;;;;;24.73;17.23;;;11.70;99.90;;;;;;5053018;28;20200;-66
2022/11/09 04:52:44;;;;;;;34.35;30.13;;;11.60;99.90;;;;;;5053441;28;20201;-66
2022/11/09 04:55:12;;;;;;;40.22;34.45;;;11.60;99.90;;;;;;5053070;28;20605;-65
2022/11/09 04:57:40;;;;;;;34.22;26.23;;;11.60;99.90;;;;;;5064855;28;20207;-65
2022/11/09 05:00:09;;;;;;;49.22;38.80;;;11.60;99.90;;;;;;5073506;28;20204;-65
2022/11/09 05:02:37;;;;;;;47.58;35.58;;;11.60;99.90;;;;;;5072673;28;20199;-65
2022/11/09 05:05:06;;;;;;;31.95;27.02;;;11.60;99.90;;;;;;5070711;28;20207;-65
2022/11/09 05:07:36;;;;;;;60.00;50.70;;;11.60;99.90;;;;;;5073531;28;20237;-65
2022/11/09 05:10:04;;;;;;;30.73;27.40;;;11.60;99.90;;;;;;5072975;28;20188;-65
2022/11/09 05:12:32;;;;;;;40.72;35.08;;;11.60;99.90;;;;;;5072555;28;20228;-65
2022/11/09 05:15:00;;;;;;;53.33;41.20;;;11.60;99.90;;;;;;5072647;28;20658;-65
2022/11/09 05:17:28;;;;;;;40.55;32.72;;;11.70;99.90;;;;;;5072886;28;20662;-66
2022/11/09 05:19:56;;;;;;;51.50;39.30;;;11.70;99.90;;;;;;5072464;28;20203;-65
2022/11/09 05:25:11;;;;;;;55.33;44.80;;;11.60;99.90;;;;;;5072803;28;20666;-66
2022/11/09 05:27:39;;;;;;;33.38;26.85;;;11.60;99.90;;;;;;5072527;28;20228;-66
2022/11/09 05:30:08;;;;;;;25.38;20.27;;;11.60;99.90;;;;;;5071540;28;20631;-65
2022/11/09 05:32:38;;;;;;;19.13;17.02;;;11.60;99.90;;;;;;5072373;28;20269;-65
2022/11/09 05:35:07;;;;;;;20.75;17.23;;;11.60;99.90;;;;;;5072889;28;20200;-65
2022/11/09 05:37:34;;;;;;;19.55;17.20;;;11.60;99.90;;;;;;5072464;28;20235;-64
2022/11/09 05:40:02;;;;;;;21.50;17.38;;;11.60;99.90;;;;;;5072288;28;20559;-64
2022/11/09 05:42:32;;;;;;;18.23;16.20;;;11.70;99.90;;;;;;5064549;28;20204;-65
2022/11/09 05:45:00;;;;;;;18.88;16.00;;;11.60;99.90;;;;;;5052311;28;20209;-65
2022/11/09 05:47:27;;;;;;;19.48;16.02;;;11.60;99.90;;;;;;5062131;28;20212;-64
2022/11/09 05:49:55;;;;;;;20.73;14.65;;;11.70;99.90;;;;;;5069544;28;20199;-64
2022/11/09 05:52:23;;;;;;;23.65;17.25;;;11.60;99.90;;;;;;5051174;28;20628;-64
2022/11/09 05:54:51;;;;;;;25.25;17.13;;;11.70;99.90;;;;;;5052081;28;20273;-64
2022/11/09 05:57:19;;;;;;;17.38;15.52;;;11.70;99.90;;;;;;5069955;28;20218;-64
2022/11/09 05:59:48;;;;;;;19.50;15.18;;;11.70;99.90;;;;;;5072026;28;20203;-64
2022/11/09 06:02:16;;;;;;;18.98;15.35;;;11.70;99.90;;;;;;5070391;28;20203;-64
2022/11/09 06:04:44;;;;;;;21.40;17.38;;;11.60;99.90;;;;;;5070848;28;20681;-64
2022/11/09 06:07:12;;;;;;;22.23;17.48;;;11.70;99.90;;;;;;5070891;28;20226;-64
2022/11/09 06:09:40;;;;;;;22.80;17.13;;;11.70;99.90;;;;;;5069793;28;20203;-64
2022/11/09 06:12:08;;;;;;;20.10;17.25;;;11.70;99.90;;;;;;5060199;28;20237;-64
2022/11/09 06:14:36;;;;;;;21.67;17.05;;;11.60;99.90;;;;;;5050160;28;20211;-64
2022/11/09 06:17:08;;;;;;;22.33;16.48;;;11.60;99.90;;;;;;5051480;28;20200;-64
2022/11/09 06:19:36;;;;;;;19.45;15.15;;;11.70;99.90;;;;;;5051411;28;20195;-64
2022/11/09 06:22:03;;;;;;;18.17;15.40;;;11.70;99.90;;;;;;5051986;28;20207;-65
2022/11/09 06:24:31;;;;;;;18.73;15.52;;;11.60;99.90;;;;;;5049999;28;20542;-65
2022/11/09 06:26:59;;;;;;;13.65;12.25;;;11.60;99.90;;;;;;5050817;28;20705;-64
2022/11/09 06:29:27;;;;;;;19.40;15.20;;;11.70;99.90;;;;;;5050421;28;20232;-64
2022/11/09 06:31:55;;;;;;;16.73;13.40;;;11.70;99.90;;;;;;5051122;28;20196;-64
2022/11/09 06:34:24;;;;;;;16.17;12.95;;;11.70;99.90;;;;;;5051389;28;20204;-65
2022/11/09 06:36:53;;;;;;;13.93;12.15;;;11.70;99.90;;;;;;5067305;28;20203;-65
2022/11/09 06:39:23;;;;;;;14.70;13.03;;;11.70;99.90;;;;;;5063718;28;20893;-66
2022/11/09 06:41:51;;;;;;;15.15;13.55;;;11.70;99.90;;;;;;5064884;28;20757;-65
2022/11/09 06:44:19;;;;;;;17.40;13.83;;;11.70;99.90;;;;;;5070186;28;20207;-66
2022/11/09 06:46:47;;;;;;;12.20;10.83;;;11.70;99.90;;;;;;5067943;28;20670;-67
2022/11/09 06:49:15;;;;;;;12.43;11.13;;;11.70;99.90;;;;;;5068715;28;20627;-68
2022/11/09 06:51:44;;;;;;;14.60;10.45;;;11.70;99.90;;;;;;5064411;28;20204;-66
2022/11/09 06:54:12;;;;;;;10.02;7.65;;;11.70;99.90;;;;;;5049754;28;20258;-65
2022/11/09 06:56:40;;;;;;;8.53;7.73;;;11.70;99.90;;;;;;5062103;28;20199;-67
2022/11/09 06:59:08;;;;;;;7.78;6.53;;;11.70;99.90;;;;;;5061427;28;20619;-67
2022/11/09 07:01:36;;;;;;;8.20;7.40;;;11.70;99.90;;;;;;5049730;28;20236;-66
2022/11/09 07:04:04;;;;;;;6.37;5.83;;;11.70;99.90;;;;;;5054187;28;20714;-66
2022/11/09 07:06:32;;;;;;;6.63;5.50;;;11.70;99.90;;;;;;5056874;28;20661;-66
2022/11/09 07:09:01;;;;;;;6.85;6.15;;;11.70;99.90;;;;;;5074756;28;21078;-66
2022/11/09 07:11:29;;;;;;;6.53;5.43;;;11.70;99.90;;;;;;5074204;28;20215;-67
2022/11/09 07:13:57;;;;;;;6.00;5.40;;;11.60;99.90;;;;;;5055269;28;21170;-67
2022/11/09 07:16:25;;;;;;;5.47;4.97;;;11.60;99.90;;;;;;5053794;28;21199;-66
2022/11/09 07:18:53;;;;;;;4.97;4.57;;;11.60;99.90;;;;;;5053855;28;20703;-66
2022/11/09 07:21:21;;;;;;;3.97;2.63;;;11.60;99.90;;;;;;5054055;28;20614;-66
2022/11/09 07:23:49;;;;;;;2.80;2.60;;;11.60;99.90;;;;;;5051961;28;21159;-66
2022/11/09 07:26:18;;;;;;;2.67;2.47;;;11.60;99.90;;;;;;5053952;28;20615;-64
2022/11/09 07:28:46;;;;;;;2.50;2.30;;;11.50;99.90;;;;;;5053165;28;20650;-64
2022/11/09 07:31:14;;;;;;;4.00;3.10;;;11.50;99.90;;;;;;5053476;28;20213;-64
2022/11/09 07:33:42;;;;;;;3.70;3.40;;;11.50;99.90;;;;;;5053463;28;20607;-66
2022/11/09 07:36:10;;;;;;;3.43;1.93;;;11.50;99.90;;;;;;5054044;28;20611;-66
2022/11/09 07:38:38;;;;;;;2.60;2.50;;;11.50;99.90;;;;;;5053616;28;20631;-66
2022/11/09 07:41:06;;;;;;;5.57;2.50;;;11.50;99.90;;;;;;5055244;28;20627;-67
2022/11/09 07:43:35;;;;;;;5.87;1.97;;;11.50;99.90;;;;;;5057227;28;20192;-66
2022/11/09 07:46:05;;;;;;;1.90;1.70;;;11.60;99.90;;;;;;5067199;28;20601;-66
2022/11/09 07:48:33;;;;;;;2.75;1.75;;;11.60;99.90;;;;;;5052564;28;20223;-65
2022/11/09 07:51:01;;;;;;;4.53;1.95;;;11.60;99.90;;;;;;5055306;28;20200;-67
2022/11/09 07:53:29;;;;;;;2.35;2.15;;;11.60;99.90;;;;;;5071643;28;20200;-68
2022/11/09 07:55:58;;;;;;;3.75;1.70;;;11.60;99.90;;;;;;5059250;28;20204;-67
2022/11/09 07:58:26;;;;;;;2.00;1.90;;;11.60;99.90;;;;;;5055789;28;20224;-67
2022/11/09 08:00:55;;;;;;;1.83;1.73;;;11.60;99.90;;;;;;5057018;28;20188;-67
2022/11/09 08:03:24;;;;;;;4.33;2.00;;;11.60;99.90;;;;;;5072289;28;20996;-67
2022/11/09 08:05:52;;;;;;;1.75;1.65;;;11.60;99.90;;;;;;5063710;28;20601;-66
2022/11/09 08:08:20;;;;;;;3.05;2.38;;;11.70;99.90;;;;;;5058219;28;20254;-67
2022/11/09 08:10:51;;;;;;;2.38;1.63;;;11.70;99.90;;;;;;5072751;28;20562;-70
2022/11/09 08:13:19;;;;;;;4.40;2.10;;;11.70;99.90;;;;;;5064444;28;20567;-65
2022/11/09 08:15:48;;;;;;;2.33;2.23;;;11.80;99.90;;;;;;5052342;28;20661;-66
2022/11/09 08:18:19;;;;;;;5.50;2.80;;;11.80;99.90;;;;;;5052729;28;20607;-66
2022/11/09 08:20:47;;;;;;;3.53;2.30;;;11.80;99.90;;;;;;5052121;28;20640;-66
2022/11/09 08:23:16;;;;;;;5.37;3.33;;;11.90;99.90;;;;;;5052754;28;20615;-67
2022/11/09 08:25:44;;;;;;;4.33;2.70;;;12.00;99.90;;;;;;5052153;28;20597;-67
2022/11/09 08:28:14;;;;;;;5.10;3.63;;;12.00;99.90;;;;;;5052614;28;20666;-67
2022/11/09 08:30:43;;;;;;;4.23;3.80;;;12.10;99.90;;;;;;5058742;28;20599;-67
2022/11/09 08:33:11;;;;;;;3.70;3.40;;;12.20;99.90;;;;;;5071086;28;20986;-67
2022/11/09 08:35:40;;;;;;;5.47;4.90;;;12.30;99.90;;;;;;5068515;28;20622;-67
2022/11/09 08:38:09;;;;;;;8.00;5.10;;;12.40;99.90;;;;;;5050956;28;22306;-67
2022/11/09 08:40:37;;;;;;;4.90;4.50;;;12.40;99.90;;;;;;5051609;28;20627;-67
2022/11/09 08:43:07;;;;;;;4.10;3.83;;;12.50;99.90;;;;;;5052562;28;20623;-69
2022/11/09 08:45:36;;;;;;;4.70;4.30;;;12.70;99.90;;;;;;5061262;28;21176;-68
2022/11/09 08:48:06;;;;;;;3.90;3.70;;;12.90;99.90;;;;;;5063729;28;20632;-69
2022/11/09 08:50:36;;;;;;;5.33;4.20;;;12.90;99.90;;;;;;5060720;28;20618;-68
2022/11/09 08:53:06;;;;;;;7.13;3.60;;;12.80;99.90;;;;;;5060726;28;21229;-68
2022/11/09 08:55:34;;;;;;;4.40;4.00;;;12.70;99.90;;;;;;5058248;28;20600;-67
2022/11/09 08:58:03;;;;;;;4.70;3.90;;;12.80;99.90;;;;;;5058308;28;20681;-68
2022/11/09 09:00:31;;;;;;;9.47;4.67;;;12.90;99.90;;;;;;5068968;28;20625;-68
2022/11/09 09:03:03;;;;;;;5.20;4.40;;;12.90;99.90;;;;;;5053155;28;20708;-68
2022/11/09 09:05:31;;;;;;;6.43;4.27;;;13.00;99.90;;;;;;5052857;28;20587;-68
2022/11/09 09:07:59;;;;;;;7.50;4.70;;;13.00;99.90;;;;;;5059413;28;20654;-68
2022/11/09 09:10:28;;;;;;;5.80;4.73;;;13.20;99.90;;;;;;5068128;28;20618;-68
2022/11/09 09:12:56;;;;;;;5.00;4.57;;;13.20;99.90;;;;;;5069083;28;20998;-68
2022/11/09 09:15:25;;;;;;;3.97;3.57;;;13.30;99.90;;;;;;5063256;28;20631;-68
2022/11/09 09:17:53;;;;;;;5.70;4.60;;;13.40;99.90;;;;;;5056775;28;20649;-69
2022/11/09 09:20:20;;;;;;;4.60;4.20;;;13.30;99.90;;;;;;5058488;28;20722;-68
2022/11/09 09:22:48;;;;;;;6.70;4.97;;;13.30;99.90;;;;;;5062567;28;20623;-69
2022/11/09 09:25:16;;;;;;;5.67;4.50;;;13.20;99.90;;;;;;5058128;28;20618;-68
2022/11/09 09:27:46;;;;;;;4.30;3.90;;;13.30;99.90;;;;;;5056212;28;20728;-68
2022/11/09 09:30:14;;;;;;;4.63;4.10;;;13.40;99.90;;;;;;5051694;28;21010;-68
2022/11/09 09:32:41;;;;;;;3.80;3.40;;;13.50;99.90;;;;;;5063291;28;21263;-68
2022/11/09 09:35:10;;;;;;;4.20;3.80;;;13.40;99.90;;;;;;5071638;28;20630;-66
2022/11/09 09:37:38;;;;;;;3.80;3.50;;;13.40;99.90;;;;;;5056831;28;20626;-68
2022/11/09 09:40:07;;;;;;;7.53;4.60;;;13.50;99.90;;;;;;5054062;28;20650;-66
2022/11/09 09:42:36;;;;;;;5.20;3.30;;;13.50;99.90;;;;;;5066874;28;20630;-68
2022/11/09 09:45:13;;;;;;;4.13;3.57;;;13.60;99.90;;;;;;5060397;28;20626;-68
2022/11/09 09:47:48;;;;;;;3.93;3.57;;;13.70;99.90;;;;;;5053877;28;21204;-69
2022/11/09 09:50:21;;;;;;;3.30;3.10;;;13.80;99.90;;;;;;5058080;28;20630;-67
2022/11/09 09:52:55;;;;;;;8.43;3.70;;;13.80;99.90;;;;;;5057745;28;20617;-67
2022/11/09 09:55:28;;;;;;;4.50;3.73;;;13.70;99.90;;;;;;5051065;28;20574;-68
2022/11/09 09:58:03;;;;;;;4.20;3.90;;;13.80;99.90;;;;;;5051790;28;20607;-68
2022/11/09 10:00:37;;;;;;;3.50;3.30;;;13.90;99.90;;;;;;5054919;28;21021;-67
2022/11/09 10:03:06;;;;;;;6.03;3.53;;;13.80;99.90;;;;;;5055968;28;20626;-68
2022/11/09 10:05:47;;;;;;;4.70;3.80;;;13.70;99.90;;;;;;5050581;28;20634;-69
2022/11/09 10:08:24;;;;;;;5.33;4.23;;;13.70;99.90;;;;;;5054326;28;21186;-68
2022/11/09 10:11:04;;;;;;;4.43;4.03;;;13.70;99.90;;;;;;5061188;28;20665;-68
2022/11/09 10:13:58;;;;;;;4.50;4.20;;;13.80;99.90;;;;;;5068890;28;20606;-68
2022/11/09 10:16:34;;;;;;;5.57;4.53;;;13.90;99.90;;;;;;5051685;28;20698;-68
2022/11/09 10:19:32;;;;;;;4.40;4.00;;;14.10;99.90;;;;;;5062757;28;21174;-68
2022/11/09 10:22:07;;;;;;;5.43;4.30;;;13.90;99.90;;;;;;5065412;28;20661;-68
2022/11/09 10:24:45;;;;;;;4.30;3.83;;;14.00;99.90;;;;;;5063156;28;20977;-68
2022/11/09 10:27:32;;;;;;;4.30;3.90;;;14.10;99.90;;;;;;5051093;28;20615;-68
2022/11/09 10:30:01;;;;;;;4.87;4.10;;;14.10;99.90;;;;;;5054910;28;20617;-68
2022/11/09 10:32:32;;;;;;;4.17;3.87;;;14.20;99.90;;;;;;5053856;28;20668;-68
2022/11/09 10:35:07;;;;;;;4.30;3.93;;;14.30;99.90;;;;;;5051154;28;20631;-68
2022/11/09 10:37:38;;;;;;;4.30;4.00;;;14.20;99.90;;;;;;5049459;28;20614;-68
2022/11/09 10:40:15;;;;;;;4.33;3.93;;;14.20;99.90;;;;;;5051186;28;21026;-68
2022/11/09 10:43:06;;;;;;;4.63;4.10;;;14.50;99.90;;;;;;5059455;28;20610;-68
2022/11/09 10:46:03;;;;;;;6.87;4.93;;;14.60;99.90;;;;;;5051240;28;20617;-68
2022/11/09 10:48:52;;;;;;;4.70;4.40;;;14.70;99.90;;;;;;5064724;28;21246;-68
2022/11/09 10:51:41;;;;;;;5.03;4.60;;;14.60;99.90;;;;;;5070209;28;20610;-67
2022/11/09 10:54:31;;;;;;;9.33;4.30;;;14.80;99.90;;;;;;5057441;28;20621;-67
2022/11/09 10:57:20;;;;;;;4.13;3.40;;;14.90;99.90;;;;;;5050552;28;20590;-68
2022/11/09 11:00:15;;;;;;;5.10;3.57;;;15.40;99.90;;;;;;5057131;28;20602;-67
2022/11/09 11:03:11;;;;;;;4.87;3.50;;;15.60;99.90;;;;;;5070043;28;21179;-67
2022/11/09 11:06:00;;;;;;;4.57;3.57;;;15.70;99.90;;;;;;5066603;28;20602;-66
2022/11/09 11:08:48;;;;;;;4.70;2.70;;;15.60;99.90;;;;;;5053722;28;20647;-66
2022/11/09 11:11:36;;;;;;;5.57;3.17;;;15.30;99.90;;;;;;5071590;28;20638;-67
2022/11/09 11:14:29;;;;;;;7.30;3.30;;;15.40;99.90;;;;;;5069904;28;20611;-68
2022/11/09 11:17:24;;;;;;;3.20;3.00;;;15.30;99.90;;;;;;5061417;28;21171;-68
2022/11/09 11:20:28;;;;;;;3.43;3.10;;;15.30;99.90;;;;;;5058552;28;20603;-67
2022/11/09 11:23:18;;;;;;;6.83;3.57;;;15.40;99.90;;;;;;5063117;28;20697;-67
2022/11/09 11:26:31;;;;;;;3.60;3.30;;;15.40;99.90;;;;;;5070789;28;20598;-68
2022/11/09 11:29:29;;;;;;;2.90;2.70;;;15.30;99.90;;;;;;5066927;28;20670;-67
2022/11/09 11:32:18;;;;;;;2.50;2.33;;;15.20;99.90;;;;;;5058170;28;20627;-67
2022/11/09 11:35:11;;;;;;;2.73;2.50;;;15.20;99.90;;;;;;5068303;28;20610;-67
2022/11/09 11:38:11;;;;;;;3.27;2.27;;;15.20;99.90;;;;;;5057015;28;20634;-66
2022/11/09 11:41:14;;;;;;;4.30;3.00;;;15.10;99.90;;;;;;5059549;28;20642;-67
2022/11/09 11:44:05;;;;;;;2.73;2.53;;;15.10;99.90;;;;;;5049319;28;20706;-67
2022/11/09 11:47:01;;;;;;;3.40;2.97;;;15.00;99.90;;;;;;5064892;28;20619;-68
2022/11/09 11:50:17;;;;;;;4.07;2.90;;;15.10;99.90;;;;;;5061025;28;20724;-67
2022/11/09 11:53:19;;;;;;;3.37;2.60;;;15.10;99.90;;;;;;5063568;28;20957;-67
2022/11/09 11:56:21;;;;;;;4.13;3.83;;;15.10;99.90;;;;;;5059749;28;21178;-67
2022/11/09 11:59:25;;;;;;;3.30;3.10;;;15.20;99.90;;;;;;5063667;28;20617;-66
2022/11/09 12:02:35;;;;;;;3.00;2.73;;;15.20;99.90;;;;;;5058257;28;20627;-66
2022/11/09 12:05:57;;;;;;;3.23;3.03;;;15.20;99.90;;;;;;5059441;28;21590;-67
2022/11/09 12:09:02;;;;;;;6.00;3.40;;;15.30;99.90;;;;;;5062834;28;20657;-68
2022/11/09 12:12:01;;;;;;;3.30;2.87;;;15.30;99.90;;;;;;5063796;28;21311;-67
2022/11/09 12:15:03;;;;;;;3.40;3.20;;;15.20;99.90;;;;;;5052766;28;20622;-67
2022/11/09 12:18:01;;;;;;;4.93;3.27;;;15.20;99.90;;;;;;5063144;28;21011;-67
2022/11/09 12:20:57;;;;;;;5.23;3.00;;;15.20;99.90;;;;;;5061012;28;20630;-67
2022/11/09 12:24:03;;;;;;;3.77;2.73;;;15.40;99.90;;;;;;5060233;28;20967;-68
2022/11/09 12:27:04;;;;;;;3.47;3.03;;;15.50;99.90;;;;;;5058599;28;21192;-68
2022/11/09 12:29:59;;;;;;;3.57;2.93;;;15.60;99.90;;;;;;5066821;28;20649;-68
2022/11/09 12:32:53;;;;;;;3.47;2.90;;;15.40;99.90;;;;;;5071975;28;20990;-67
2022/11/09 12:35:45;;;;;;;2.97;2.67;;;15.30;99.90;;;;;;5051985;28;20606;-67
2022/11/09 12:38:36;;;;;;;3.43;3.07;;;15.20;99.90;;;;;;5065416;28;20633;-67
2022/11/09 12:41:28;;;;;;;3.07;2.83;;;15.10;99.90;;;;;;5054347;28;20641;-67
2022/11/09 12:44:23;;;;;;;4.83;2.93;;;15.10;99.90;;;;;;5052672;28;20615;-66
2022/11/09 12:47:15;;;;;;;3.33;3.13;;;15.10;99.90;;;;;;5058249;28;20626;-67
2022/11/09 12:50:03;;;;;;;3.80;3.50;;;15.00;99.90;;;;;;5053466;28;20647;-67
2022/11/09 12:52:51;;;;;;;3.60;3.33;;;14.90;99.90;;;;;;5052512;28;21167;-67
2022/11/09 12:55:43;;;;;;;2.80;2.60;;;14.90;99.90;;;;;;5059790;28;21156;-68
2022/11/09 12:58:32;;;;;;;4.53;4.13;;;14.70;99.90;;;;;;5060486;28;21005;-68
2022/11/09 13:01:47;;;;;;;4.87;3.30;;;14.80;99.90;;;;;;5053423;28;20631;-68
2022/11/09 13:04:34;;;;;;;8.70;3.27;;;14.70;99.90;;;;;;5060759;28;20626;-67
2022/11/09 13:07:42;;;;;;;4.33;3.03;;;14.80;99.90;;;;;;5052003;28;20611;-67
2022/11/09 13:10:31;;;;;;;3.43;3.10;;;14.70;99.90;;;;;;5057316;28;20638;-67
2022/11/09 13:13:24;;;;;;;3.80;3.50;;;14.60;99.90;;;;;;5054101;28;20979;-68